Time;durP1;ratioP1;P1;durP2;ratioP2;P2;SDS_P1;SDS_P2;PMS_P1;PMS_P2;Temp;Humidity;BMP_temperature;BMP_pressure;BME280_temperature;BME280_humidity;BME280_pressure;Samples;Min_cycle;Max_cycle;Signal;HPM_P1;HPM_P2
2023/05/26 00:01:23;;;;;;;10.80;6.60;;;;;;;14.92;100.00;96812.31;6138951;23;20035;-90
2023/05/26 00:03:48;;;;;;;11.43;7.00;;;;;;;15.04;100.00;96820.72;6163471;23;20005;-90
2023/05/26 00:06:15;;;;;;;12.60;6.83;;;;;;;14.80;100.00;96822.47;6163236;23;20016;-90
2023/05/26 00:08:41;;;;;;;12.90;6.80;;;;;;;14.99;100.00;96833.63;6163223;23;20087;-90
2023/05/26 00:11:07;;;;;;;12.10;7.27;;;;;;;14.98;100.00;96834.66;6138800;23;20088;-91
2023/05/26 00:13:33;;;;;;;14.47;7.63;;;;;;;14.84;100.00;96831.72;6163417;23;20005;-90
2023/05/26 00:16:00;;;;;;;13.13;6.97;;;;;;;14.70;100.00;96829.78;6162756;23;20007;-90
2023/05/26 00:18:26;;;;;;;12.30;6.77;;;;;;;14.68;100.00;96833.59;6161411;23;20009;-90
2023/05/26 00:20:55;;;;;;;14.40;8.43;;;;;;;14.72;100.00;96824.31;6163652;23;20015;-90
2023/05/26 00:23:21;;;;;;;13.17;7.23;;;;;;;14.77;100.00;96828.09;6162804;23;20025;-90
2023/05/26 00:25:48;;;;;;;12.33;6.87;;;;;;;14.78;100.00;96831.56;6162753;23;20008;-91
2023/05/26 00:28:14;;;;;;;14.37;7.80;;;;;;;14.83;100.00;96837.19;6162375;23;20011;-90
2023/05/26 00:30:40;;;;;;;11.80;8.07;;;;;;;14.72;100.00;96838.41;6161847;23;20088;-90
2023/05/26 00:33:05;;;;;;;12.17;7.10;;;;;;;14.70;100.00;96835.09;6162002;23;20005;-90
2023/05/26 00:35:31;;;;;;;13.23;7.60;;;;;;;14.67;100.00;96826.66;6162026;23;20004;-90
2023/05/26 00:37:56;;;;;;;15.90;8.07;;;;;;;14.64;100.00;96835.75;6173165;23;19992;-91
2023/05/26 00:40:22;;;;;;;13.30;7.63;;;;;;;14.61;100.00;96841.38;6157167;23;20000;-90
2023/05/26 00:42:48;;;;;;;13.60;7.27;;;;;;;14.61;100.00;96844.03;6179144;23;20009;-90
2023/05/26 00:45:14;;;;;;;12.47;8.03;;;;;;;14.57;100.00;96840.91;6161789;23;20015;-91
2023/05/26 00:47:40;;;;;;;12.53;7.30;;;;;;;14.46;100.00;96838.59;6160882;23;20005;-91
2023/05/26 00:50:07;;;;;;;12.00;7.53;;;;;;;14.37;100.00;96840.41;6161599;23;20005;-90
2023/05/26 00:52:33;;;;;;;16.43;8.47;;;;;;;14.35;100.00;96838.94;6161731;23;20069;-91
2023/05/26 00:54:59;;;;;;;16.00;7.73;;;;;;;14.41;100.00;96830.31;6160912;23;20009;-90
2023/05/26 00:57:27;;;;;;;13.57;7.17;;;;;;;14.39;100.00;96833.16;6161729;23;20083;-90
2023/05/26 00:59:55;;;;;;;10.63;7.13;;;;;;;14.22;100.00;96826.25;6160745;23;20028;-90
2023/05/26 01:02:22;;;;;;;13.00;7.60;;;;;;;14.32;100.00;96826.88;6161372;23;20066;-91
2023/05/26 01:04:52;;;;;;;13.40;7.93;;;;;;;14.19;100.00;96825.75;6161497;23;20384;-90
2023/05/26 01:07:22;;;;;;;13.07;8.50;;;;;;;14.14;100.00;96823.59;6163146;23;20128;-90
2023/05/26 01:09:49;;;;;;;13.17;7.67;;;;;;;14.22;100.00;96820.94;6161600;23;20104;-90
2023/05/26 01:12:38;;;;;;;13.23;8.70;;;;;;;14.28;100.00;96824.72;6161833;23;20088;-91
2023/05/26 01:15:11;;;;;;;15.00;8.63;;;;;;;14.23;100.00;96822.59;6162435;23;20009;-90
2023/05/26 01:17:50;;;;;;;10.45;5.88;;;;;;;14.18;100.00;96816.97;6161643;23;20004;-90
2023/05/26 01:20:38;;;;;;;15.47;8.50;;;;;;;13.91;100.00;96826.91;6161653;23;20008;-91
2023/05/26 01:23:46;;;;;;;12.77;8.47;;;;;;;14.13;100.00;96824.59;6168631;23;20005;-90
2023/05/26 01:26:38;;;;;;;14.03;9.13;;;;;;;14.12;100.00;96823.75;6158414;23;20001;-90
2023/05/26 01:29:14;;;;;;;11.90;8.13;;;;;;;14.00;100.00;96827.72;6164958;23;20015;-90
2023/05/26 01:31:40;;;;;;;16.20;8.47;;;;;;;14.02;100.00;96828.41;6161098;23;20012;-90
2023/05/26 01:34:07;;;;;;;14.10;7.90;;;;;;;14.00;100.00;96829.56;6161045;23;20014;-90
2023/05/26 01:36:33;;;;;;;13.50;8.13;;;;;;;13.99;100.00;96825.25;6160891;23;20012;-90
2023/05/26 01:38:59;;;;;;;14.03;8.17;;;;;;;13.73;100.00;96826.25;6160848;23;20092;-90
2023/05/26 01:41:51;;;;;;;14.60;8.97;;;;;;;13.86;100.00;96828.41;6166287;23;20009;-90
2023/05/26 01:44:31;;;;;;;13.20;7.23;;;;;;;13.83;100.00;96831.38;6174850;23;20013;-91
2023/05/26 01:46:57;;;;;;;14.97;8.00;;;;;;;13.75;100.00;96826.06;6161302;23;20096;-90
2023/05/26 01:49:33;;;;;;;15.13;8.33;;;;;;;13.72;100.00;96824.59;6136050;23;20433;-90
2023/05/26 01:52:08;;;;;;;13.40;7.73;;;;;;;13.67;100.00;96826.88;6151824;23;20012;-90
2023/05/26 01:54:37;;;;;;;15.00;8.67;;;;;;;13.74;100.00;96829.72;6151525;23;20008;-90
2023/05/26 01:57:06;;;;;;;13.33;8.03;;;;;;;13.80;100.00;96827.22;6151155;23;20008;-91
2023/05/26 01:59:33;;;;;;;14.20;8.07;;;;;;;13.76;100.00;96822.44;6153407;23;20009;-90
2023/05/26 02:01:59;;;;;;;15.17;8.90;;;;;;;13.90;100.00;96827.91;6154087;23;20099;-90
2023/05/26 02:04:24;;;;;;;13.67;8.60;;;;;;;13.79;100.00;96820.31;6154555;23;20009;-90
2023/05/26 02:06:52;;;;;;;14.37;8.37;;;;;;;13.79;100.00;96820.31;6155286;23;20023;-90
2023/05/26 02:09:18;;;;;;;13.50;8.87;;;;;;;13.80;100.00;96827.22;6154589;23;20019;-89
2023/05/26 02:11:44;;;;;;;14.00;8.23;;;;;;;13.80;100.00;96827.22;6155166;23;20004;-90
2023/05/26 02:14:09;;;;;;;14.47;8.63;;;;;;;13.78;100.00;96831.03;6155169;23;20001;-88
2023/05/26 02:16:35;;;;;;;12.83;8.30;;;;;;;13.75;100.00;96832.19;6154040;23;20017;-90
2023/05/26 02:19:01;;;;;;;14.10;9.30;;;;;;;13.74;100.00;96830.53;6154723;23;20036;-90
2023/05/26 02:21:28;;;;;;;12.53;8.60;;;;;;;13.68;100.00;96828.53;6153794;23;20004;-90
2023/05/26 02:23:54;;;;;;;13.33;8.83;;;;;;;13.69;100.00;96830.22;6154456;23;20008;-90
2023/05/26 02:26:21;;;;;;;12.83;8.93;;;;;;;13.60;100.00;96836.47;6154979;23;20067;-90
2023/05/26 02:28:50;;;;;;;15.80;8.90;;;;;;;13.48;100.00;96835.13;6155030;23;19997;-90
2023/05/26 02:31:16;;;;;;;13.00;8.80;;;;;;;13.40;100.00;96828.84;6158996;23;20654;-90
2023/05/26 02:33:42;;;;;;;13.40;8.40;;;;;;;13.33;100.00;96824.38;6133796;23;20012;-90
2023/05/26 02:36:10;;;;;;;15.07;8.17;;;;;;;13.20;100.00;96828.25;6159333;23;20001;-91
2023/05/26 02:38:36;;;;;;;13.60;8.17;;;;;;;13.23;100.00;96829.75;6158494;23;20080;-90
2023/05/26 02:41:01;;;;;;;15.07;8.33;;;;;;;13.20;100.00;96836.19;6158528;23;20008;-90
2023/05/26 02:43:27;;;;;;;16.17;9.47;;;;;;;13.19;100.00;96821.34;6183457;23;20032;-89
2023/05/26 02:45:52;;;;;;;15.40;8.77;;;;;;;13.28;100.00;96826.66;6134078;23;20723;-90
2023/05/26 02:48:19;;;;;;;13.73;8.57;;;;;;;13.06;100.00;96818.31;6158120;23;20061;-90
2023/05/26 02:50:45;;;;;;;14.37;8.23;;;;;;;13.08;100.00;96820.81;6158606;23;20039;-91
2023/05/26 02:53:10;;;;;;;14.67;9.00;;;;;;;13.20;100.00;96819.50;6155846;23;20013;-90
2023/05/26 02:55:38;;;;;;;14.57;8.70;;;;;;;13.08;100.00;96821.63;6158813;23;20005;-90
2023/05/26 02:58:03;;;;;;;13.87;8.83;;;;;;;13.14;100.00;96828.06;6159548;23;20001;-90
2023/05/26 03:00:29;;;;;;;14.77;8.23;;;;;;;13.13;100.00;96827.25;6158381;23;20106;-90
2023/05/26 03:02:55;;;;;;;16.57;9.37;;;;;;;13.07;100.00;96827.06;6158779;23;20398;-90
2023/05/26 03:05:20;;;;;;;12.97;8.53;;;;;;;12.98;100.00;96828.88;6157871;23;20445;-90
2023/05/26 03:07:46;;;;;;;12.13;8.67;;;;;;;12.78;100.00;96830.94;6158988;23;20001;-90
2023/05/26 03:10:12;;;;;;;14.47;9.33;;;;;;;12.76;100.00;96832.88;6134889;23;20041;-90
2023/05/26 03:12:37;;;;;;;14.93;9.03;;;;;;;12.91;100.00;96823.41;6159611;23;19997;-90
2023/05/26 03:15:04;;;;;;;23.83;14.87;;;;;;;12.72;100.00;96821.00;6158466;23;20005;-90
2023/05/26 03:17:30;;;;;;;16.40;9.27;;;;;;;12.94;100.00;96820.44;6158161;23;20008;-90
2023/05/26 03:19:56;;;;;;;14.57;8.77;;;;;;;12.91;100.00;96815.47;6160713;23;20001;-90
2023/05/26 03:22:23;;;;;;;17.50;9.83;;;;;;;12.99;100.00;96817.31;6170535;23;20001;-90
2023/05/26 03:24:49;;;;;;;15.77;8.27;;;;;;;13.04;100.00;96819.47;6176153;23;20027;-90
2023/05/26 03:27:17;;;;;;;13.73;9.17;;;;;;;13.04;100.00;96816.81;6173614;23;20059;-90
2023/05/26 03:29:42;;;;;;;16.17;9.33;;;;;;;12.97;100.00;96820.09;6157875;23;20016;-90
2023/05/26 03:32:08;;;;;;;15.60;9.33;;;;;;;12.89;100.00;96816.63;6156399;23;20067;-90
2023/05/26 03:34:44;;;;;;;15.77;9.47;;;;;;;12.90;100.00;96823.53;6137937;23;20425;-90
2023/05/26 03:37:15;;;;;;;18.13;9.93;;;;;;;12.62;100.00;96820.28;6157127;23;20059;-90
2023/05/26 03:39:42;;;;;;;14.17;9.20;;;;;;;12.69;100.00;96824.78;6157147;23;20009;-89
2023/05/26 03:42:08;;;;;;;16.27;9.80;;;;;;;12.76;100.00;96819.69;6131380;23;20001;-89
2023/05/26 03:44:35;;;;;;;14.80;8.90;;;;;;;12.81;100.00;96813.94;6157195;23;20067;-90
2023/05/26 03:47:01;;;;;;;14.77;9.57;;;;;;;12.90;100.00;96811.16;6157237;23;20032;-90
2023/05/26 03:49:26;;;;;;;14.00;9.47;;;;;;;12.91;100.00;96811.97;6157956;23;20000;-89
2023/05/26 03:51:53;;;;;;;15.93;9.87;;;;;;;12.66;100.00;96817.16;6156282;23;20062;-90
2023/05/26 03:54:19;;;;;;;15.87;9.13;;;;;;;12.89;100.00;96814.78;6155921;23;20091;-89
2023/05/26 03:56:46;;;;;;;17.00;9.20;;;;;;;12.76;100.00;96811.78;6157315;23;20711;-90
2023/05/26 03:59:12;;;;;;;18.87;9.83;;;;;;;12.94;100.00;96814.31;6157155;23;20005;-89
2023/05/26 04:01:38;;;;;;;16.43;9.03;;;;;;;13.02;100.00;96824.09;6155655;23;20012;-90
2023/05/26 04:04:04;;;;;;;19.10;9.97;;;;;;;12.82;100.00;96818.25;6161797;23;20009;-89
2023/05/26 04:06:31;;;;;;;16.53;9.07;;;;;;;12.81;100.00;96827.97;6155834;23;20067;-89
2023/05/26 04:08:59;;;;;;;16.20;9.30;;;;;;;12.86;100.00;96822.22;6131071;23;19993;-90
2023/05/26 04:11:26;;;;;;;14.60;8.63;;;;;;;13.01;100.00;96822.41;6157477;23;20013;-88
2023/05/26 04:13:51;;;;;;;15.93;9.70;;;;;;;12.99;100.00;96819.94;6154047;23;20024;-90
2023/05/26 04:16:17;;;;;;;16.63;8.87;;;;;;;13.04;100.00;96828.19;6150931;23;20009;-90
2023/05/26 04:18:43;;;;;;;15.40;9.63;;;;;;;13.13;100.00;96829.06;6152851;23;20005;-90
2023/05/26 04:21:08;;;;;;;16.97;9.87;;;;;;;13.22;100.00;96828.13;6151554;23;20009;-90
2023/05/26 04:23:34;;;;;;;15.23;8.83;;;;;;;13.08;100.00;96829.56;6151828;23;20063;-89
2023/05/26 04:26:00;;;;;;;16.00;8.57;;;;;;;12.80;100.00;96831.59;6156974;23;20033;-90
2023/05/26 04:28:45;;;;;;;18.50;9.27;;;;;;;12.91;100.00;96833.09;6160527;23;20012;-90
2023/05/26 04:31:42;;;;;;;14.73;9.50;;;;;;;13.01;100.00;96835.63;6130978;23;20416;-90
2023/05/26 04:34:30;;;;;;;12.38;6.90;;;;;;;13.14;100.00;96825.44;6123911;23;20067;-90
2023/05/26 04:37:09;;;;;;;15.03;9.17;;;;;;;13.02;100.00;96824.91;6160220;23;20429;-90
2023/05/26 04:39:35;;;;;;;14.73;8.90;;;;;;;13.12;100.00;96824.78;6160990;23;20084;-89
2023/05/26 04:42:03;;;;;;;15.80;9.33;;;;;;;13.16;100.00;96826.13;6160529;23;20009;-90
2023/05/26 04:44:30;;;;;;;16.93;9.53;;;;;;;13.15;100.00;96827.09;6161692;23;20027;-90
2023/05/26 04:46:57;;;;;;;19.03;10.03;;;;;;;13.34;100.00;96826.84;6161625;23;20009;-84
2023/05/26 04:49:23;;;;;;;14.70;8.40;;;;;;;13.66;100.00;96822.59;6161985;23;20079;-89
2023/05/26 04:52:08;;;;;;;18.07;8.90;;;;;;;13.93;100.00;96828.56;6161503;23;20001;-89
2023/05/26 04:54:40;;;;;;;17.93;9.87;;;;;;;13.97;100.00;96821.94;6160532;23;20742;-89
2023/05/26 04:57:06;;;;;;;11.30;8.83;;;;;;;13.88;100.00;96818.47;6161066;23;20639;-89
2023/05/26 05:00:12;;;;;;;15.50;9.27;;;;;;;14.09;100.00;96816.16;6158825;23;20009;-90
2023/05/26 05:02:38;;;;;;;13.13;9.20;;;;;;;13.88;100.00;96827.25;6158816;23;20005;-89
2023/05/26 05:05:10;;;;;;;16.27;8.33;;;;;;;14.14;100.00;96815.66;6158264;23;20005;-89
2023/05/26 05:07:37;;;;;;;17.60;8.37;;;;;;;13.91;100.00;96823.44;6159008;23;20005;-89
2023/05/26 05:10:03;;;;;;;15.90;10.90;;;;;;;13.85;100.00;96824.94;6157997;23;20025;-89
2023/05/26 05:12:31;;;;;;;16.60;8.20;;;;;;;13.97;100.00;96824.59;6157179;23;20459;-89
2023/05/26 05:14:57;;;;;;;17.70;8.60;;;;;;;14.06;100.00;96816.50;6157602;23;20005;-89
2023/05/26 05:17:23;;;;;;;13.77;8.57;;;;;;;14.26;100.00;96832.03;6159557;23;20318;-90
2023/05/26 05:19:49;;;;;;;11.40;7.80;;;;;;;14.42;100.00;96832.00;6160892;23;20084;-90
2023/05/26 05:22:14;;;;;;;15.97;8.90;;;;;;;14.59;100.00;96822.22;6167826;23;20004;-90
2023/05/26 05:24:40;;;;;;;14.90;8.07;;;;;;;14.44;100.00;96840.56;6171950;23;20060;-90
2023/05/26 05:27:06;;;;;;;15.10;9.43;;;;;;;14.50;100.00;96829.34;6156920;23;20349;-89
2023/05/26 05:29:31;;;;;;;15.83;8.43;;;;;;;14.81;100.00;96829.41;6156500;23;20004;-89
2023/05/26 05:32:00;;;;;;;19.20;8.73;;;;;;;15.28;100.00;96827.72;6158030;23;20444;-89
2023/05/26 05:34:30;;;;;;;14.57;8.53;;;;;;;15.49;100.00;96830.59;6159167;23;20302;-90
2023/05/26 05:36:55;;;;;;;12.90;8.27;;;;;;;15.53;100.00;96831.06;6158247;23;20036;-90
2023/05/26 05:39:21;;;;;;;15.87;9.10;;;;;;;15.47;100.00;96835.22;6160586;23;20009;-89
2023/05/26 05:41:47;;;;;;;14.73;9.30;;;;;;;15.51;100.00;96838.34;6159550;23;20005;-87
2023/05/26 05:44:13;;;;;;;15.13;8.47;;;;;;;16.16;100.00;96832.59;6160074;23;20428;-87
2023/05/26 05:46:39;;;;;;;14.67;8.50;;;;;;;16.81;100.00;96836.44;6160416;23;20005;-88
2023/05/26 05:49:34;;;;;;;22.23;8.77;;;;;;;17.11;100.00;96837.25;6152029;23;20055;-84
2023/05/26 05:51:59;;;;;;;12.53;8.03;;;;;;;17.34;100.00;96831.00;6178729;23;20025;-80
2023/05/26 05:54:26;;;;;;;12.10;7.73;;;;;;;17.38;100.00;96837.56;6168239;23;20008;-80
2023/05/26 05:56:53;;;;;;;16.27;9.53;;;;;;;17.67;100.00;96840.16;6167632;23;20016;-80
2023/05/26 05:59:20;;;;;;;19.93;8.47;;;;;;;17.84;100.00;96838.09;6169530;23;20464;-80
2023/05/26 06:01:45;;;;;;;13.60;8.07;;;;;;;17.74;100.00;96842.03;6170492;23;20005;-80
2023/05/26 06:04:11;;;;;;;13.03;7.70;;;;;;;17.95;100.00;96849.25;6173448;23;20452;-81
2023/05/26 06:06:36;;;;;;;20.90;8.17;;;;;;;18.29;100.00;96845.84;6171949;23;20007;-81
2023/05/26 06:09:03;;;;;;;20.20;8.20;;;;;;;17.93;100.00;96851.25;6158041;23;20005;-90
2023/05/26 06:11:35;;;;;;;33.40;10.90;;;;;;;18.79;100.00;96854.66;6158134;23;20603;-92
2023/05/26 06:14:01;;;;;;;23.70;9.80;;;;;;;19.01;100.00;96856.22;6132640;23;20021;-89
2023/05/26 06:16:27;;;;;;;13.73;7.63;;;;;;;19.65;100.00;96863.06;6161037;23;20062;-89
2023/05/26 06:18:52;;;;;;;13.80;8.07;;;;;;;19.04;100.00;96865.63;6161434;23;20433;-90
2023/05/26 06:21:19;;;;;;;12.95;7.47;;;;;;;20.40;100.00;96858.44;6161711;23;20032;-90
2023/05/26 06:23:49;;;;;;;12.75;7.88;;;;;;;19.91;100.00;96867.63;6153149;23;20001;-90
2023/05/26 06:26:17;;;;;;;16.13;8.50;;;;;;;19.61;100.00;96860.97;6162748;23;20005;-90
2023/05/26 06:28:43;;;;;;;14.90;7.47;;;;;;;20.22;100.00;96863.56;6158532;23;20001;-89
2023/05/26 06:31:08;;;;;;;15.23;8.70;;;;;;;20.25;100.00;96869.34;6135440;23;20009;-89
2023/05/26 06:33:42;;;;;;;12.15;6.43;;;;;;;20.88;100.00;96866.22;6162247;23;20012;-88
2023/05/26 06:36:10;;;;;;;15.45;7.38;;;;;;;20.53;100.00;96859.50;6161006;23;20071;-88
2023/05/26 06:38:36;;;;;;;42.33;11.27;;;;;;;21.50;100.00;96857.84;6160837;23;20005;-91
2023/05/26 06:41:06;;;;;;;13.73;7.63;;;;;;;20.53;100.00;96867.53;6160049;23;20009;-88
2023/05/26 06:43:32;;;;;;;13.35;7.50;;;;;;;21.06;100.00;96859.38;6161837;23;20060;-88
2023/05/26 06:45:58;;;;;;;12.00;7.03;;;;;;;21.33;100.00;96860.97;6162093;23;20469;-88
2023/05/26 06:48:24;;;;;;;13.88;6.45;;;;;;;21.81;98.07;96865.91;6161398;23;20012;-88
2023/05/26 06:51:10;;;;;;;11.00;6.72;;;;;;;22.64;93.72;96859.56;6155404;23;20009;-89
2023/05/26 06:53:39;;;;;;;13.48;6.38;;;;;;;22.54;92.56;96861.94;6161898;23;20062;-88
2023/05/26 06:56:08;;;;;;;16.90;7.68;;;;;;;22.30;90.91;96872.41;6137651;23;20016;-88
2023/05/26 06:58:35;;;;;;;13.45;7.03;;;;;;;22.24;92.84;96862.56;6162398;23;20012;-88
2023/05/26 07:01:03;;;;;;;11.07;6.95;;;;;;;23.34;84.54;96858.44;6161816;23;20062;-88
2023/05/26 07:03:31;;;;;;;10.52;6.75;;;;;;;22.35;86.47;96867.22;6160777;23;20009;-88
2023/05/26 07:05:58;;;;;;;12.80;7.00;;;;;;;22.45;91.44;96868.59;6157826;23;20005;-88
2023/05/26 07:08:26;;;;;;;13.18;6.97;;;;;;;22.92;88.85;96859.06;6159631;23;20009;-88
2023/05/26 07:10:53;;;;;;;15.32;7.28;;;;;;;23.36;86.24;96861.72;6144205;23;20012;-88
2023/05/26 07:13:19;;;;;;;11.77;6.72;;;;;;;24.11;79.28;96854.13;6172719;23;20001;-88
2023/05/26 07:15:45;;;;;;;15.18;7.53;;;;;;;24.16;78.82;96856.94;6177347;23;20027;-88
2023/05/26 07:18:13;;;;;;;14.27;6.72;;;;;;;25.70;68.04;96846.94;6164934;23;20066;-87
2023/05/26 07:20:39;;;;;;;14.02;6.90;;;;;;;25.47;65.64;96859.44;6150566;23;20017;-88
2023/05/26 07:23:05;;;;;;;12.82;7.15;;;;;;;23.76;78.66;96860.19;6159179;23;20005;-88
2023/05/26 07:25:34;;;;;;;15.05;7.28;;;;;;;24.55;69.01;96852.03;6158069;23;20020;-87
2023/05/26 07:27:59;;;;;;;10.65;6.03;;;;;;;25.07;66.34;96853.97;6155724;23;20027;-86
2023/05/26 07:30:25;;;;;;;11.48;6.57;;;;;;;26.45;65.89;96854.75;6158198;23;20000;-87
2023/05/26 07:33:08;;;;;;;15.35;6.63;;;;;;;26.52;61.42;96855.44;6156297;23;20005;-87
2023/05/26 07:35:34;;;;;;;11.43;6.60;;;;;;;26.02;61.15;96860.75;6135922;23;20016;-87
2023/05/26 07:38:02;;;;;;;12.35;7.10;;;;;;;26.34;60.94;96861.06;6160483;23;20091;-87
2023/05/26 07:40:34;;;;;;;12.23;6.78;;;;;;;27.17;53.38;96861.31;6158969;23;20013;-87
2023/05/26 07:42:59;;;;;;;10.98;6.38;;;;;;;27.36;51.33;96854.50;6160881;23;20001;-87
2023/05/26 07:45:25;;;;;;;11.43;5.88;;;;;;;27.90;48.20;96849.22;6161212;23;20008;-87
2023/05/26 07:47:51;;;;;;;21.98;6.88;;;;;;;28.11;46.15;96854.84;6161474;23;20005;-87
2023/05/26 07:50:16;;;;;;;12.63;5.90;;;;;;;27.78;48.39;96862.06;6160566;23;20001;-87
2023/05/26 07:52:42;;;;;;;11.80;5.63;;;;;;;27.65;48.59;96860.53;6160805;23;20670;-87
2023/05/26 07:55:07;;;;;;;9.57;5.85;;;;;;;28.56;45.00;96857.13;6136074;23;20039;-87
2023/05/26 07:57:33;;;;;;;13.05;6.13;;;;;;;27.20;50.44;96868.91;6161564;23;20005;-88
2023/05/26 07:59:59;;;;;;;12.70;6.18;;;;;;;27.32;48.30;96861.47;6160548;23;20694;-87
2023/05/26 08:02:25;;;;;;;11.15;6.18;;;;;;;28.24;48.30;96854.44;6161316;23;20016;-88
2023/05/26 08:04:50;;;;;;;12.50;6.82;;;;;;;28.69;43.11;96864.00;6158584;23;20342;-87
2023/05/26 08:07:16;;;;;;;15.88;6.70;;;;;;;28.11;46.23;96862.94;6163935;23;20012;-88
2023/05/26 08:09:42;;;;;;;9.98;5.97;;;;;;;28.21;46.37;96854.94;6163900;23;20005;-88
2023/05/26 08:12:09;;;;;;;11.70;6.72;;;;;;;27.50;48.41;96866.59;6162401;23;20005;-88
2023/05/26 08:14:35;;;;;;;30.20;6.95;;;;;;;27.62;48.36;96857.53;6155859;23;20025;-88
2023/05/26 08:17:01;;;;;;;13.90;7.07;;;;;;;27.96;46.43;96847.38;6156383;23;20029;-87
2023/05/26 08:19:41;;;;;;;12.05;6.57;;;;;;;28.57;45.08;96852.53;6157867;23;20527;-87
2023/05/26 08:22:07;;;;;;;11.70;6.50;;;;;;;29.20;46.49;96848.09;6159193;23;20345;-88
2023/05/26 08:24:32;;;;;;;13.68;7.22;;;;;;;29.24;44.40;96851.09;6159184;23;20004;-87
2023/05/26 08:26:58;;;;;;;12.68;6.20;;;;;;;27.72;47.86;96860.34;6158589;23;20012;-87
2023/05/26 08:29:24;;;;;;;10.80;6.70;;;;;;;29.73;43.34;96859.72;6157060;23;20001;-88
2023/05/26 08:31:50;;;;;;;12.25;7.00;;;;;;;29.51;41.35;96862.63;6156086;23;20059;-88
2023/05/26 08:34:17;;;;;;;10.73;5.82;;;;;;;30.36;38.76;96856.91;6156658;23;20031;-87
2023/05/26 08:36:42;;;;;;;12.85;6.78;;;;;;;29.48;44.78;96857.72;6154673;23;20008;-88
2023/05/26 08:39:10;;;;;;;15.15;7.00;;;;;;;30.77;38.51;96857.72;6154267;23;20001;-87
2023/05/26 08:41:45;;;;;;;11.70;6.63;;;;;;;30.74;38.02;96858.22;6152291;23;20004;-88
2023/05/26 08:44:15;;;;;;;10.90;6.35;;;;;;;30.86;37.62;96862.63;6153657;23;20013;-87
2023/05/26 08:46:44;;;;;;;9.40;5.60;;;;;;;30.50;39.71;96857.19;6153942;23;20005;-88
2023/05/26 08:49:14;;;;;;;11.48;6.35;;;;;;;29.53;42.23;96854.22;6153950;23;20009;-87
2023/05/26 08:51:44;;;;;;;9.35;6.03;;;;;;;30.95;37.85;96858.22;6154026;23;20017;-88
2023/05/26 08:54:11;;;;;;;11.90;5.85;;;;;;;31.07;36.78;96850.63;6153148;23;20028;-88
2023/05/26 08:56:37;;;;;;;12.38;6.57;;;;;;;29.95;36.74;96854.09;6175662;23;20005;-87
2023/05/26 08:59:08;;;;;;;10.98;5.80;;;;;;;30.75;37.89;96849.03;6129260;23;20061;-88
2023/05/26 09:01:34;;;;;;;10.37;6.53;;;;;;;30.07;39.21;96856.56;6156854;23;20040;-87
2023/05/26 09:04:00;;;;;;;12.82;6.65;;;;;;;28.72;43.00;96854.56;6157176;23;20400;-85
2023/05/26 09:06:26;;;;;;;10.80;5.90;;;;;;;29.33;41.22;96849.53;6158077;23;20041;-85
2023/05/26 09:08:53;;;;;;;8.80;5.68;;;;;;;28.89;43.41;96845.19;6135465;23;20668;-85
2023/05/26 09:11:23;;;;;;;77.43;16.13;;;;;;;29.94;42.52;96848.94;6132373;23;20005;-88
2023/05/26 09:13:56;;;;;;;11.43;5.57;;;;;;;30.03;40.17;96852.75;6137972;23;20080;-88
2023/05/26 09:16:27;;;;;;;9.88;6.43;;;;;;;31.30;37.60;96854.63;6146768;23;19999;-88
2023/05/26 09:19:01;;;;;;;11.20;5.72;;;;;;;31.47;38.44;96859.75;6132207;23;20017;-88
2023/05/26 09:21:27;;;;;;;14.10;6.70;;;;;;;30.39;38.24;96853.66;6127491;23;20303;-88
2023/05/26 09:24:00;;;;;;;11.63;5.57;;;;;;;31.16;37.61;96856.31;6127261;23;20350;-88
2023/05/26 09:26:33;;;;;;;;;;;;;;;31.81;35.83;96845.47;6127706;23;20005;-88
2023/05/26 09:28:59;;;;;;;;;;;;;;;32.38;35.18;96850.28;6128523;23;19908;-88
2023/05/26 09:31:36;;;;;;;9.77;6.22;;;;;;;30.59;37.61;96865.59;6125548;23;19908;-88
2023/05/26 09:34:01;;;;;;;13.00;5.60;;;;;;;30.87;38.03;96859.63;6100443;23;20009;-88
2023/05/26 09:36:27;;;;;;;15.80;7.03;;;;;;;32.17;36.10;96852.34;6124785;23;20011;-88
2023/05/26 09:38:52;;;;;;;17.38;6.20;;;;;;;32.05;34.57;96849.16;6125335;23;20732;-89
2023/05/26 09:41:20;;;;;;;10.63;5.72;;;;;;;31.98;34.86;96848.66;6126041;23;20005;-90
2023/05/26 09:43:50;;;;;;;9.18;5.78;;;;;;;31.99;33.64;96849.47;6125534;23;20010;-89
2023/05/26 09:46:22;;;;;;;9.65;5.68;;;;;;;32.74;33.59;96844.56;6125063;23;20008;-90
2023/05/26 09:48:51;;;;;;;15.15;6.22;;;;;;;32.52;34.75;96852.38;6128397;23;20001;-90
2023/05/26 09:51:23;;;;;;;10.57;5.95;;;;;;;32.48;33.63;96856.78;6128518;23;20010;-89
2023/05/26 09:53:51;;;;;;;;;;;;;;;32.50;32.96;96862.75;6128557;23;20040;-90
2023/05/26 09:56:19;;;;;;;10.38;6.28;;;;;;;32.59;33.69;96855.56;6129144;23;19952;-90
2023/05/26 09:58:47;;;;;;;11.05;5.95;;;;;;;31.95;34.70;96853.84;6129750;23;20014;-90
2023/05/26 10:01:13;;;;;;;13.77;5.60;;;;;;;32.77;33.85;96851.34;6131462;23;20005;-89
2023/05/26 10:03:38;;;;;;;8.18;5.35;;;;;;;32.90;32.28;96847.97;6130834;23;20005;-89
2023/05/26 10:06:05;;;;;;;8.27;5.45;;;;;;;32.06;35.24;96848.06;6126175;23;20051;-88
2023/05/26 10:08:32;;;;;;;8.35;4.97;;;;;;;32.83;33.26;96847.44;6123036;23;20922;-88
2023/05/26 10:10:58;;;;;;;9.93;5.93;;;;;;;32.47;34.14;96847.78;6123418;23;20033;-89
2023/05/26 10:13:24;;;;;;;9.40;5.70;;;;;;;29.35;38.45;96853.59;6120911;23;20403;-90
2023/05/26 10:15:50;;;;;;;10.82;6.03;;;;;;;32.17;33.13;96846.91;6124245;23;20005;-89
2023/05/26 10:18:16;;;;;;;13.93;6.28;;;;;;;33.48;31.94;96837.00;6108983;23;20016;-90
2023/05/26 10:20:50;;;;;;;10.35;5.85;;;;;;;32.66;32.31;96844.34;6094565;23;20105;-88
2023/05/26 10:23:28;;;;;;;8.52;5.38;;;;;;;29.79;37.78;96849.72;6125582;23;20028;-87
2023/05/26 10:26:16;;;;;;;9.77;5.45;;;;;;;30.09;38.29;96846.25;6125258;23;20009;-87
2023/05/26 10:29:01;;;;;;;11.05;5.35;;;;;;;31.80;34.70;96841.94;6128441;23;20008;-88
2023/05/26 10:31:39;;;;;;;11.88;5.88;;;;;;;31.42;34.81;96840.75;6129905;23;20005;-89
2023/05/26 10:34:14;;;;;;;9.90;5.65;;;;;;;28.83;40.11;96840.81;6122126;23;20437;-88
2023/05/26 10:36:41;;;;;;;9.95;5.40;;;;;;;29.15;42.69;96844.56;6123508;23;20036;-89
2023/05/26 10:39:11;;;;;;;9.98;6.13;;;;;;;30.83;38.95;96844.16;6123900;23;20049;-90
2023/05/26 10:41:54;;;;;;;10.60;5.85;;;;;;;29.52;41.18;96845.28;6126376;23;20016;-89
2023/05/26 10:44:41;;;;;;;8.98;5.20;;;;;;;30.84;36.92;96840.34;6123590;23;20410;-89
2023/05/26 10:47:12;;;;;;;9.25;5.82;;;;;;;31.90;36.85;96824.78;6124223;23;20009;-92
2023/05/26 10:49:38;;;;;;;10.20;5.75;;;;;;;32.06;38.06;96831.75;6127775;23;20046;-92
2023/05/26 10:52:13;;;;;;;11.00;6.05;;;;;;;31.36;36.34;96836.44;6126080;23;20041;-92
2023/05/26 10:54:42;;;;;;;8.10;5.72;;;;;;;31.58;34.98;96836.88;6139349;23;20016;-92
2023/05/26 10:57:31;;;;;;;28.13;11.50;;;;;;;31.56;37.75;96835.53;6134539;23;20005;-88
2023/05/26 10:59:57;;;;;;;14.07;6.38;;;;;;;31.38;36.62;96840.47;6145055;23;20053;-91
2023/05/26 11:02:23;;;;;;;12.80;6.32;;;;;;;31.43;37.97;96840.47;6134923;23;20014;-92
2023/05/26 11:04:50;;;;;;;12.07;5.97;;;;;;;32.54;34.46;96834.66;6132752;23;20334;-92
2023/05/26 11:07:23;;;;;;;9.88;5.82;;;;;;;31.81;35.57;96831.84;6131032;23;20024;-93
2023/05/26 11:10:02;;;;;;;9.43;5.85;;;;;;;30.90;38.31;96850.13;6133049;23;20044;-91
2023/05/26 11:12:48;;;;;;;10.90;6.30;;;;;;;30.32;39.56;96839.53;6134947;23;19998;-91
2023/05/26 11:15:26;;;;;;;12.98;6.40;;;;;;;30.74;39.82;96839.22;6126303;23;20401;-91
2023/05/26 11:18:09;;;;;;;11.05;7.05;;;;;;;29.41;44.83;96842.78;6118072;23;20119;-91
2023/05/26 11:20:36;;;;;;;10.25;6.32;;;;;;;29.55;44.69;96841.22;6127212;23;20005;-91
2023/05/26 11:23:03;;;;;;;83.80;16.05;;;;;;;30.90;43.86;96839.25;6123198;23;20024;-89
2023/05/26 11:25:29;;;;;;;29.67;9.38;;;;;;;29.26;50.06;96838.94;6121040;23;20025;-89
2023/05/26 11:27:54;;;;;;;19.15;7.95;;;;;;;29.81;46.08;96840.25;6120572;23;20079;-90
2023/05/26 11:30:21;;;;;;;12.93;7.75;;;;;;;30.71;40.98;96837.06;6119672;23;20001;-88